sensor_id;sensor_type;location;lat;lon;timestamp;P1;durP1;ratioP1;P2;durP2;ratioP2
10295;SDS011;5193;51.032;6.356;2023-07-20T00:01:07;3.53;;;2.20;;
10295;SDS011;5193;51.032;6.356;2023-07-20T00:03:33;4.10;;;2.23;;
10295;SDS011;5193;51.032;6.356;2023-07-20T00:05:58;3.53;;;2.40;;
10295;SDS011;5193;51.032;6.356;2023-07-20T00:08:24;2.90;;;1.97;;
10295;SDS011;5193;51.032;6.356;2023-07-20T00:10:49;4.40;;;2.47;;
10295;SDS011;5193;51.032;6.356;2023-07-20T00:13:15;4.07;;;2.50;;
10295;SDS011;5193;51.032;6.356;2023-07-20T00:15:43;2.53;;;1.90;;
10295;SDS011;5193;51.032;6.356;2023-07-20T00:18:09;2.43;;;1.70;;
10295;SDS011;5193;51.032;6.356;2023-07-20T00:20:34;2.73;;;1.90;;
10295;SDS011;5193;51.032;6.356;2023-07-20T00:23:00;3.23;;;2.00;;
10295;SDS011;5193;51.032;6.356;2023-07-20T00:25:26;2.50;;;1.63;;
10295;SDS011;5193;51.032;6.356;2023-07-20T00:27:51;3.73;;;2.00;;
10295;SDS011;5193;51.032;6.356;2023-07-20T00:30:17;3.20;;;1.90;;
10295;SDS011;5193;51.032;6.356;2023-07-20T00:32:43;5.10;;;2.23;;
10295;SDS011;5193;51.032;6.356;2023-07-20T00:35:09;1.70;;;1.60;;
10295;SDS011;5193;51.032;6.356;2023-07-20T00:37:36;3.20;;;2.10;;
10295;SDS011;5193;51.032;6.356;2023-07-20T00:40:02;1.93;;;1.50;;
10295;SDS011;5193;51.032;6.356;2023-07-20T00:42:30;1.73;;;1.57;;
10295;SDS011;5193;51.032;6.356;2023-07-20T00:44:56;4.40;;;1.80;;
10295;SDS011;5193;51.032;6.356;2023-07-20T00:47:21;2.80;;;1.97;;
10295;SDS011;5193;51.032;6.356;2023-07-20T00:49:47;2.87;;;1.90;;
10295;SDS011;5193;51.032;6.356;2023-07-20T00:52:13;3.10;;;2.10;;
10295;SDS011;5193;51.032;6.356;2023-07-20T00:54:40;3.30;;;2.40;;
10295;SDS011;5193;51.032;6.356;2023-07-20T00:57:07;2.37;;;1.93;;
10295;SDS011;5193;51.032;6.356;2023-07-20T00:59:33;3.10;;;1.70;;
10295;SDS011;5193;51.032;6.356;2023-07-20T01:01:59;3.63;;;1.93;;
10295;SDS011;5193;51.032;6.356;2023-07-20T01:04:25;3.87;;;2.00;;
10295;SDS011;5193;51.032;6.356;2023-07-20T01:07:13;3.23;;;1.93;;
10295;SDS011;5193;51.032;6.356;2023-07-20T01:13:04;3.63;;;2.70;;
10295;SDS011;5193;51.032;6.356;2023-07-20T01:15:25;4.17;;;2.27;;
10295;SDS011;5193;51.032;6.356;2023-07-20T01:17:51;5.90;;;2.40;;
10295;SDS011;5193;51.032;6.356;2023-07-20T01:20:20;3.40;;;2.37;;
10295;SDS011;5193;51.032;6.356;2023-07-20T01:22:55;3.97;;;2.13;;
10295;SDS011;5193;51.032;6.356;2023-07-20T01:31:19;3.43;;;2.00;;
10295;SDS011;5193;51.032;6.356;2023-07-20T01:33:50;2.90;;;2.37;;
10295;SDS011;5193;51.032;6.356;2023-07-20T01:36:18;3.90;;;2.50;;
10295;SDS011;5193;51.032;6.356;2023-07-20T01:38:46;6.77;;;2.43;;
10295;SDS011;5193;51.032;6.356;2023-07-20T01:41:12;4.50;;;2.13;;
10295;SDS011;5193;51.032;6.356;2023-07-20T01:43:39;5.50;;;2.30;;
10295;SDS011;5193;51.032;6.356;2023-07-20T01:46:05;4.60;;;2.27;;
10295;SDS011;5193;51.032;6.356;2023-07-20T01:48:31;5.03;;;2.70;;
10295;SDS011;5193;51.032;6.356;2023-07-20T01:50:56;4.63;;;2.50;;
10295;SDS011;5193;51.032;6.356;2023-07-20T01:53:22;4.87;;;2.30;;
10295;SDS011;5193;51.032;6.356;2023-07-20T01:55:48;4.67;;;2.30;;
10295;SDS011;5193;51.032;6.356;2023-07-20T01:58:13;7.50;;;2.63;;
10295;SDS011;5193;51.032;6.356;2023-07-20T02:00:39;4.27;;;2.67;;
10295;SDS011;5193;51.032;6.356;2023-07-20T02:03:04;5.53;;;2.83;;
10295;SDS011;5193;51.032;6.356;2023-07-20T02:05:30;4.07;;;2.60;;
10295;SDS011;5193;51.032;6.356;2023-07-20T02:07:56;7.40;;;2.50;;
10295;SDS011;5193;51.032;6.356;2023-07-20T02:10:21;4.63;;;2.60;;
10295;SDS011;5193;51.032;6.356;2023-07-20T02:12:47;6.43;;;2.83;;
10295;SDS011;5193;51.032;6.356;2023-07-20T02:15:14;4.80;;;2.50;;
10295;SDS011;5193;51.032;6.356;2023-07-20T02:17:41;3.50;;;2.50;;
10295;SDS011;5193;51.032;6.356;2023-07-20T02:20:08;3.70;;;2.77;;
10295;SDS011;5193;51.032;6.356;2023-07-20T02:22:37;4.17;;;2.70;;
10295;SDS011;5193;51.032;6.356;2023-07-20T02:25:04;3.47;;;2.30;;
10295;SDS011;5193;51.032;6.356;2023-07-20T02:27:30;4.37;;;2.27;;
10295;SDS011;5193;51.032;6.356;2023-07-20T02:29:56;6.57;;;2.67;;
10295;SDS011;5193;51.032;6.356;2023-07-20T02:32:22;4.73;;;2.60;;
10295;SDS011;5193;51.032;6.356;2023-07-20T02:34:47;4.93;;;2.70;;
10295;SDS011;5193;51.032;6.356;2023-07-20T02:37:13;3.83;;;2.53;;
10295;SDS011;5193;51.032;6.356;2023-07-20T02:39:39;2.97;;;2.03;;
10295;SDS011;5193;51.032;6.356;2023-07-20T02:42:04;3.77;;;2.50;;
10295;SDS011;5193;51.032;6.356;2023-07-20T02:44:30;6.43;;;2.77;;
10295;SDS011;5193;51.032;6.356;2023-07-20T02:46:56;3.70;;;2.60;;
10295;SDS011;5193;51.032;6.356;2023-07-20T02:49:22;3.27;;;2.17;;
10295;SDS011;5193;51.032;6.356;2023-07-20T02:51:47;5.63;;;2.83;;
10295;SDS011;5193;51.032;6.356;2023-07-20T02:54:13;4.93;;;2.80;;
10295;SDS011;5193;51.032;6.356;2023-07-20T02:56:38;4.73;;;2.53;;
10295;SDS011;5193;51.032;6.356;2023-07-20T02:59:04;6.00;;;2.63;;
10295;SDS011;5193;51.032;6.356;2023-07-20T03:01:29;9.43;;;2.63;;
10295;SDS011;5193;51.032;6.356;2023-07-20T03:03:55;7.23;;;2.90;;
10295;SDS011;5193;51.032;6.356;2023-07-20T03:06:21;4.87;;;2.50;;
10295;SDS011;5193;51.032;6.356;2023-07-20T03:08:47;10.33;;;2.60;;
10295;SDS011;5193;51.032;6.356;2023-07-20T03:11:16;7.23;;;2.87;;
10295;SDS011;5193;51.032;6.356;2023-07-20T03:13:43;3.70;;;2.37;;
10295;SDS011;5193;51.032;6.356;2023-07-20T03:16:09;4.43;;;2.27;;
10295;SDS011;5193;51.032;6.356;2023-07-20T03:18:39;4.87;;;2.33;;
10295;SDS011;5193;51.032;6.356;2023-07-20T03:21:05;5.50;;;2.60;;
10295;SDS011;5193;51.032;6.356;2023-07-20T03:23:31;4.23;;;2.20;;
10295;SDS011;5193;51.032;6.356;2023-07-20T03:25:57;5.53;;;2.77;;
10295;SDS011;5193;51.032;6.356;2023-07-20T03:28:22;5.07;;;2.57;;
10295;SDS011;5193;51.032;6.356;2023-07-20T03:30:57;4.43;;;2.73;;
10295;SDS011;5193;51.032;6.356;2023-07-20T03:33:25;4.27;;;1.97;;
10295;SDS011;5193;51.032;6.356;2023-07-20T03:35:51;5.20;;;2.40;;
10295;SDS011;5193;51.032;6.356;2023-07-20T03:38:17;4.97;;;2.23;;
10295;SDS011;5193;51.032;6.356;2023-07-20T03:40:53;6.10;;;2.97;;
10295;SDS011;5193;51.032;6.356;2023-07-20T03:43:20;4.43;;;2.70;;
10295;SDS011;5193;51.032;6.356;2023-07-20T03:45:46;6.53;;;3.10;;
10295;SDS011;5193;51.032;6.356;2023-07-20T03:48:13;3.37;;;2.07;;
10295;SDS011;5193;51.032;6.356;2023-07-20T03:50:40;4.40;;;2.70;;
10295;SDS011;5193;51.032;6.356;2023-07-20T03:53:05;4.23;;;2.70;;
10295;SDS011;5193;51.032;6.356;2023-07-20T03:55:31;10.23;;;3.27;;
10295;SDS011;5193;51.032;6.356;2023-07-20T03:57:56;7.57;;;2.70;;
10295;SDS011;5193;51.032;6.356;2023-07-20T04:00:22;4.80;;;2.50;;
10295;SDS011;5193;51.032;6.356;2023-07-20T04:02:48;6.37;;;2.73;;
10295;SDS011;5193;51.032;6.356;2023-07-20T04:05:14;5.03;;;2.70;;
10295;SDS011;5193;51.032;6.356;2023-07-20T04:07:40;6.77;;;2.70;;
10295;SDS011;5193;51.032;6.356;2023-07-20T04:10:06;6.00;;;3.00;;
10295;SDS011;5193;51.032;6.356;2023-07-20T04:12:32;5.33;;;3.03;;
10295;SDS011;5193;51.032;6.356;2023-07-20T04:14:57;5.93;;;3.00;;
10295;SDS011;5193;51.032;6.356;2023-07-20T04:17:23;6.70;;;2.97;;
10295;SDS011;5193;51.032;6.356;2023-07-20T04:19:48;9.57;;;3.67;;
10295;SDS011;5193;51.032;6.356;2023-07-20T04:22:14;7.07;;;2.90;;
10295;SDS011;5193;51.032;6.356;2023-07-20T04:24:41;6.70;;;3.00;;
10295;SDS011;5193;51.032;6.356;2023-07-20T04:27:07;7.20;;;3.60;;
10295;SDS011;5193;51.032;6.356;2023-07-20T04:29:33;11.90;;;3.60;;
10295;SDS011;5193;51.032;6.356;2023-07-20T04:31:59;5.90;;;3.33;;
10295;SDS011;5193;51.032;6.356;2023-07-20T04:34:24;8.57;;;3.50;;
10295;SDS011;5193;51.032;6.356;2023-07-20T04:36:50;9.70;;;3.87;;
10295;SDS011;5193;51.032;6.356;2023-07-20T04:39:15;7.33;;;3.40;;
10295;SDS011;5193;51.032;6.356;2023-07-20T04:41:41;5.77;;;3.07;;
10295;SDS011;5193;51.032;6.356;2023-07-20T04:44:06;11.43;;;4.03;;
10295;SDS011;5193;51.032;6.356;2023-07-20T04:46:32;5.83;;;3.33;;
10295;SDS011;5193;51.032;6.356;2023-07-20T04:48:57;8.73;;;3.40;;
10295;SDS011;5193;51.032;6.356;2023-07-20T04:51:23;9.87;;;4.00;;
10295;SDS011;5193;51.032;6.356;2023-07-20T04:53:49;11.77;;;3.00;;
10295;SDS011;5193;51.032;6.356;2023-07-20T04:56:14;8.47;;;3.40;;
10295;SDS011;5193;51.032;6.356;2023-07-20T04:58:40;8.47;;;4.20;;
10295;SDS011;5193;51.032;6.356;2023-07-20T05:01:06;7.63;;;3.93;;
10295;SDS011;5193;51.032;6.356;2023-07-20T05:03:33;6.90;;;3.40;;
10295;SDS011;5193;51.032;6.356;2023-07-20T05:05:58;9.53;;;4.30;;
10295;SDS011;5193;51.032;6.356;2023-07-20T05:08:24;6.40;;;4.20;;
10295;SDS011;5193;51.032;6.356;2023-07-20T05:10:50;8.23;;;4.17;;
10295;SDS011;5193;51.032;6.356;2023-07-20T05:13:16;12.27;;;4.57;;
10295;SDS011;5193;51.032;6.356;2023-07-20T05:15:42;10.87;;;6.40;;
10295;SDS011;5193;51.032;6.356;2023-07-20T05:18:07;6.93;;;4.63;;
10295;SDS011;5193;51.032;6.356;2023-07-20T05:20:34;8.30;;;5.13;;
10295;SDS011;5193;51.032;6.356;2023-07-20T05:23:00;7.83;;;4.97;;
10295;SDS011;5193;51.032;6.356;2023-07-20T05:25:26;7.73;;;5.53;;
10295;SDS011;5193;51.032;6.356;2023-07-20T05:27:52;9.47;;;5.80;;
10295;SDS011;5193;51.032;6.356;2023-07-20T05:30:17;8.57;;;5.93;;
10295;SDS011;5193;51.032;6.356;2023-07-20T05:32:44;10.83;;;6.83;;
10295;SDS011;5193;51.032;6.356;2023-07-20T05:35:12;8.47;;;7.00;;
10295;SDS011;5193;51.032;6.356;2023-07-20T05:37:39;10.77;;;7.20;;
10295;SDS011;5193;51.032;6.356;2023-07-20T05:40:05;13.40;;;7.20;;
10295;SDS011;5193;51.032;6.356;2023-07-20T05:42:32;10.23;;;7.00;;
10295;SDS011;5193;51.032;6.356;2023-07-20T05:44:58;14.07;;;8.07;;
10295;SDS011;5193;51.032;6.356;2023-07-20T05:47:23;11.47;;;8.00;;
10295;SDS011;5193;51.032;6.356;2023-07-20T05:49:49;12.77;;;7.30;;
10295;SDS011;5193;51.032;6.356;2023-07-20T05:52:15;9.33;;;6.43;;
10295;SDS011;5193;51.032;6.356;2023-07-20T05:54:40;12.90;;;7.80;;
10295;SDS011;5193;51.032;6.356;2023-07-20T05:57:06;10.43;;;7.40;;
10295;SDS011;5193;51.032;6.356;2023-07-20T05:59:32;12.93;;;8.30;;
10295;SDS011;5193;51.032;6.356;2023-07-20T06:01:58;12.10;;;7.90;;
10295;SDS011;5193;51.032;6.356;2023-07-20T06:04:23;14.23;;;7.23;;
10295;SDS011;5193;51.032;6.356;2023-07-20T06:06:49;13.33;;;8.20;;
10295;SDS011;5193;51.032;6.356;2023-07-20T06:09:15;17.07;;;8.73;;
10295;SDS011;5193;51.032;6.356;2023-07-20T06:11:40;12.53;;;8.40;;
10295;SDS011;5193;51.032;6.356;2023-07-20T06:14:06;11.63;;;8.03;;
10295;SDS011;5193;51.032;6.356;2023-07-20T06:16:31;12.67;;;8.30;;
10295;SDS011;5193;51.032;6.356;2023-07-20T06:18:58;11.67;;;8.17;;
10295;SDS011;5193;51.032;6.356;2023-07-20T06:21:25;10.00;;;7.30;;
10295;SDS011;5193;51.032;6.356;2023-07-20T06:23:50;10.27;;;7.50;;
10295;SDS011;5193;51.032;6.356;2023-07-20T06:26:16;10.63;;;7.33;;
10295;SDS011;5193;51.032;6.356;2023-07-20T06:28:41;9.77;;;7.33;;
10295;SDS011;5193;51.032;6.356;2023-07-20T06:31:07;10.50;;;6.90;;
10295;SDS011;5193;51.032;6.356;2023-07-20T06:33:32;10.10;;;6.87;;
10295;SDS011;5193;51.032;6.356;2023-07-20T06:35:59;7.80;;;6.50;;
10295;SDS011;5193;51.032;6.356;2023-07-20T06:38:25;9.50;;;7.13;;
10295;SDS011;5193;51.032;6.356;2023-07-20T06:40:51;11.97;;;7.40;;
10295;SDS011;5193;51.032;6.356;2023-07-20T06:43:17;10.10;;;7.50;;
10295;SDS011;5193;51.032;6.356;2023-07-20T06:45:43;8.77;;;7.20;;
10295;SDS011;5193;51.032;6.356;2023-07-20T06:48:08;12.37;;;7.80;;
10295;SDS011;5193;51.032;6.356;2023-07-20T06:50:34;10.73;;;7.73;;
10295;SDS011;5193;51.032;6.356;2023-07-20T06:53:00;15.40;;;8.17;;
10295;SDS011;5193;51.032;6.356;2023-07-20T06:55:29;11.67;;;8.53;;
10295;SDS011;5193;51.032;6.356;2023-07-20T06:57:54;10.63;;;8.07;;
10295;SDS011;5193;51.032;6.356;2023-07-20T07:00:20;11.87;;;7.13;;
10295;SDS011;5193;51.032;6.356;2023-07-20T07:02:46;10.13;;;7.17;;
10295;SDS011;5193;51.032;6.356;2023-07-20T07:05:11;9.23;;;6.83;;
10295;SDS011;5193;51.032;6.356;2023-07-20T07:07:39;9.10;;;7.47;;
10295;SDS011;5193;51.032;6.356;2023-07-20T07:10:05;10.17;;;7.33;;
10295;SDS011;5193;51.032;6.356;2023-07-20T07:12:31;8.43;;;6.73;;
10295;SDS011;5193;51.032;6.356;2023-07-20T07:14:57;12.50;;;7.30;;
10295;SDS011;5193;51.032;6.356;2023-07-20T07:17:23;11.33;;;7.40;;
10295;SDS011;5193;51.032;6.356;2023-07-20T07:19:48;12.27;;;7.83;;
10295;SDS011;5193;51.032;6.356;2023-07-20T07:22:14;10.07;;;7.93;;
10295;SDS011;5193;51.032;6.356;2023-07-20T07:24:40;9.03;;;7.83;;
10295;SDS011;5193;51.032;6.356;2023-07-20T07:27:07;7.20;;;6.50;;
10295;SDS011;5193;51.032;6.356;2023-07-20T07:29:33;11.77;;;7.17;;
10295;SDS011;5193;51.032;6.356;2023-07-20T07:31:59;11.80;;;8.53;;
10295;SDS011;5193;51.032;6.356;2023-07-20T07:34:26;15.40;;;9.10;;
10295;SDS011;5193;51.032;6.356;2023-07-20T07:36:52;15.77;;;9.93;;
10295;SDS011;5193;51.032;6.356;2023-07-20T07:39:18;15.97;;;9.10;;
10295;SDS011;5193;51.032;6.356;2023-07-20T07:41:44;10.67;;;7.43;;
10295;SDS011;5193;51.032;6.356;2023-07-20T07:44:09;9.43;;;7.23;;
10295;SDS011;5193;51.032;6.356;2023-07-20T07:46:35;10.90;;;6.67;;
10295;SDS011;5193;51.032;6.356;2023-07-20T07:49:01;6.93;;;5.10;;
10295;SDS011;5193;51.032;6.356;2023-07-20T07:51:26;7.47;;;5.90;;
10295;SDS011;5193;51.032;6.356;2023-07-20T07:53:52;7.53;;;6.00;;
10295;SDS011;5193;51.032;6.356;2023-07-20T07:56:18;7.60;;;5.80;;
10295;SDS011;5193;51.032;6.356;2023-07-20T07:58:47;9.70;;;5.97;;
10295;SDS011;5193;51.032;6.356;2023-07-20T08:01:17;5.87;;;4.93;;
10295;SDS011;5193;51.032;6.356;2023-07-20T08:03:44;6.70;;;5.30;;
10295;SDS011;5193;51.032;6.356;2023-07-20T08:06:12;7.73;;;4.23;;
10295;SDS011;5193;51.032;6.356;2023-07-20T08:08:40;6.50;;;4.67;;
10295;SDS011;5193;51.032;6.356;2023-07-20T08:11:07;9.23;;;6.00;;
10295;SDS011;5193;51.032;6.356;2023-07-20T08:13:33;11.33;;;5.97;;
10295;SDS011;5193;51.032;6.356;2023-07-20T08:15:59;6.93;;;4.97;;
10295;SDS011;5193;51.032;6.356;2023-07-20T08:18:24;6.37;;;4.50;;
10295;SDS011;5193;51.032;6.356;2023-07-20T08:20:50;5.20;;;4.33;;
10295;SDS011;5193;51.032;6.356;2023-07-20T08:23:15;6.13;;;3.33;;
10295;SDS011;5193;51.032;6.356;2023-07-20T08:25:41;3.73;;;3.10;;
10295;SDS011;5193;51.032;6.356;2023-07-20T08:28:10;7.03;;;2.80;;
10295;SDS011;5193;51.032;6.356;2023-07-20T08:33:14;4.50;;;3.20;;
10295;SDS011;5193;51.032;6.356;2023-07-20T08:35:41;5.90;;;3.13;;
10295;SDS011;5193;51.032;6.356;2023-07-20T08:38:07;4.77;;;2.30;;
10295;SDS011;5193;51.032;6.356;2023-07-20T08:40:33;3.53;;;2.47;;
10295;SDS011;5193;51.032;6.356;2023-07-20T08:43:04;5.63;;;3.10;;
10295;SDS011;5193;51.032;6.356;2023-07-20T08:45:29;2.80;;;2.00;;
10295;SDS011;5193;51.032;6.356;2023-07-20T08:47:59;4.30;;;1.50;;
10295;SDS011;5193;51.032;6.356;2023-07-20T08:50:28;2.10;;;1.07;;
10295;SDS011;5193;51.032;6.356;2023-07-20T08:52:56;3.50;;;1.50;;
10295;SDS011;5193;51.032;6.356;2023-07-20T08:55:25;1.47;;;1.30;;
10295;SDS011;5193;51.032;6.356;2023-07-20T08:57:53;2.87;;;1.50;;
10295;SDS011;5193;51.032;6.356;2023-07-20T09:00:20;2.30;;;1.40;;
10295;SDS011;5193;51.032;6.356;2023-07-20T09:02:47;2.37;;;1.53;;
10295;SDS011;5193;51.032;6.356;2023-07-20T09:05:19;1.30;;;1.20;;
10295;SDS011;5193;51.032;6.356;2023-07-20T09:07:46;4.73;;;1.70;;
10295;SDS011;5193;51.032;6.356;2023-07-20T09:10:12;3.33;;;1.50;;
10295;SDS011;5193;51.032;6.356;2023-07-20T09:12:38;2.03;;;1.60;;
10295;SDS011;5193;51.032;6.356;2023-07-20T09:15:06;1.80;;;1.40;;
10295;SDS011;5193;51.032;6.356;2023-07-20T09:17:32;1.67;;;1.13;;
10295;SDS011;5193;51.032;6.356;2023-07-20T09:19:58;3.07;;;1.20;;
10295;SDS011;5193;51.032;6.356;2023-07-20T09:22:29;1.57;;;1.13;;
10295;SDS011;5193;51.032;6.356;2023-07-20T09:24:56;2.73;;;1.10;;
10295;SDS011;5193;51.032;6.356;2023-07-20T09:27:22;3.00;;;0.97;;
10295;SDS011;5193;51.032;6.356;2023-07-20T09:29:54;2.10;;;1.03;;
10295;SDS011;5193;51.032;6.356;2023-07-20T09:32:22;2.00;;;1.00;;
10295;SDS011;5193;51.032;6.356;2023-07-20T09:34:49;2.03;;;1.20;;
10295;SDS011;5193;51.032;6.356;2023-07-20T09:37:20;2.33;;;1.13;;
10295;SDS011;5193;51.032;6.356;2023-07-20T09:39:51;2.63;;;0.70;;
10295;SDS011;5193;51.032;6.356;2023-07-20T09:42:18;1.63;;;0.90;;
10295;SDS011;5193;51.032;6.356;2023-07-20T09:44:45;4.60;;;1.00;;
10295;SDS011;5193;51.032;6.356;2023-07-20T09:47:11;1.07;;;0.90;;
10295;SDS011;5193;51.032;6.356;2023-07-20T09:49:40;1.10;;;0.90;;
10295;SDS011;5193;51.032;6.356;2023-07-20T09:52:06;1.93;;;1.20;;
10295;SDS011;5193;51.032;6.356;2023-07-20T09:54:34;1.10;;;0.90;;
10295;SDS011;5193;51.032;6.356;2023-07-20T09:57:02;1.03;;;0.90;;
10295;SDS011;5193;51.032;6.356;2023-07-20T09:59:29;0.70;;;0.70;;
10295;SDS011;5193;51.032;6.356;2023-07-20T10:01:55;1.30;;;1.20;;
10295;SDS011;5193;51.032;6.356;2023-07-20T10:04:24;1.93;;;1.03;;
10295;SDS011;5193;51.032;6.356;2023-07-20T10:06:51;2.40;;;0.90;;
10295;SDS011;5193;51.032;6.356;2023-07-20T10:09:19;1.77;;;0.90;;
10295;SDS011;5193;51.032;6.356;2023-07-20T10:11:49;0.77;;;0.67;;
10295;SDS011;5193;51.032;6.356;2023-07-20T10:14:16;1.70;;;1.03;;
10295;SDS011;5193;51.032;6.356;2023-07-20T10:16:51;1.17;;;0.90;;
10295;SDS011;5193;51.032;6.356;2023-07-20T10:19:23;1.27;;;0.80;;
10295;SDS011;5193;51.032;6.356;2023-07-20T10:22:03;2.20;;;0.80;;
10295;SDS011;5193;51.032;6.356;2023-07-20T10:24:32;1.13;;;0.77;;
10295;SDS011;5193;51.032;6.356;2023-07-20T10:26:59;3.10;;;0.80;;
10295;SDS011;5193;51.032;6.356;2023-07-20T10:29:26;1.03;;;0.63;;
10295;SDS011;5193;51.032;6.356;2023-07-20T10:31:52;1.57;;;0.77;;
10295;SDS011;5193;51.032;6.356;2023-07-20T10:34:19;1.43;;;1.07;;
10295;SDS011;5193;51.032;6.356;2023-07-20T10:36:46;1.13;;;1.03;;
10295;SDS011;5193;51.032;6.356;2023-07-20T10:39:27;1.13;;;0.80;;
10295;SDS011;5193;51.032;6.356;2023-07-20T10:44:28;1.58;;;1.00;;
10295;SDS011;5193;51.032;6.356;2023-07-20T10:47:01;1.87;;;1.10;;
10295;SDS011;5193;51.032;6.356;2023-07-20T10:49:32;1.30;;;0.90;;
10295;SDS011;5193;51.032;6.356;2023-07-20T10:51:59;2.40;;;0.90;;
10295;SDS011;5193;51.032;6.356;2023-07-20T10:56:55;1.25;;;0.90;;
10295;SDS011;5193;51.032;6.356;2023-07-20T11:01:56;1.40;;;0.90;;
10295;SDS011;5193;51.032;6.356;2023-07-20T11:04:59;1.10;;;1.00;;
10295;SDS011;5193;51.032;6.356;2023-07-20T11:07:36;1.77;;;1.13;;
10295;SDS011;5193;51.032;6.356;2023-07-20T11:10:14;1.93;;;0.80;;
10295;SDS011;5193;51.032;6.356;2023-07-20T11:12:40;1.50;;;1.00;;
10295;SDS011;5193;51.032;6.356;2023-07-20T11:15:06;2.13;;;1.53;;
10295;SDS011;5193;51.032;6.356;2023-07-20T11:17:32;0.90;;;0.77;;
10295;SDS011;5193;51.032;6.356;2023-07-20T11:19:58;1.77;;;0.90;;
10295;SDS011;5193;51.032;6.356;2023-07-20T11:22:28;0.70;;;0.70;;
10295;SDS011;5193;51.032;6.356;2023-07-20T11:24:56;1.43;;;0.80;;
10295;SDS011;5193;51.032;6.356;2023-07-20T11:27:23;2.03;;;0.70;;
10295;SDS011;5193;51.032;6.356;2023-07-20T11:29:48;2.23;;;1.00;;
10295;SDS011;5193;51.032;6.356;2023-07-20T11:32:22;1.07;;;0.83;;
10295;SDS011;5193;51.032;6.356;2023-07-20T11:34:48;1.03;;;0.87;;
10295;SDS011;5193;51.032;6.356;2023-07-20T11:37:14;0.90;;;0.80;;
10295;SDS011;5193;51.032;6.356;2023-07-20T11:39:41;1.30;;;1.00;;
10295;SDS011;5193;51.032;6.356;2023-07-20T11:42:07;1.53;;;1.00;;
10295;SDS011;5193;51.032;6.356;2023-07-20T11:44:33;1.10;;;0.80;;
10295;SDS011;5193;51.032;6.356;2023-07-20T11:47:09;1.67;;;1.10;;
10295;SDS011;5193;51.032;6.356;2023-07-20T11:49:37;2.93;;;0.80;;
10295;SDS011;5193;51.032;6.356;2023-07-20T11:52:07;1.77;;;1.00;;
10295;SDS011;5193;51.032;6.356;2023-07-20T11:54:39;1.30;;;0.88;;
10295;SDS011;5193;51.032;6.356;2023-07-20T11:57:05;2.90;;;0.90;;
10295;SDS011;5193;51.032;6.356;2023-07-20T11:59:31;1.93;;;0.90;;
10295;SDS011;5193;51.032;6.356;2023-07-20T12:01:58;0.90;;;0.73;;
10295;SDS011;5193;51.032;6.356;2023-07-20T12:04:27;0.98;;;0.93;;
10295;SDS011;5193;51.032;6.356;2023-07-20T12:06:53;1.17;;;0.77;;
10295;SDS011;5193;51.032;6.356;2023-07-20T12:09:20;1.10;;;0.70;;
10295;SDS011;5193;51.032;6.356;2023-07-20T12:11:48;1.07;;;0.70;;
10295;SDS011;5193;51.032;6.356;2023-07-20T12:14:14;3.73;;;0.93;;
10295;SDS011;5193;51.032;6.356;2023-07-20T12:16:40;0.83;;;0.80;;
10295;SDS011;5193;51.032;6.356;2023-07-20T12:19:09;1.30;;;1.00;;
10295;SDS011;5193;51.032;6.356;2023-07-20T12:21:37;1.20;;;0.97;;
10295;SDS011;5193;51.032;6.356;2023-07-20T12:24:04;3.00;;;0.85;;
10295;SDS011;5193;51.032;6.356;2023-07-20T12:26:30;1.07;;;0.80;;
10295;SDS011;5193;51.032;6.356;2023-07-20T12:28:57;0.90;;;0.80;;
10295;SDS011;5193;51.032;6.356;2023-07-20T12:31:24;2.58;;;0.90;;
10295;SDS011;5193;51.032;6.356;2023-07-20T12:33:50;3.03;;;0.90;;
10295;SDS011;5193;51.032;6.356;2023-07-20T12:36:17;5.20;;;0.85;;
10295;SDS011;5193;51.032;6.356;2023-07-20T12:38:43;1.10;;;0.80;;
10295;SDS011;5193;51.032;6.356;2023-07-20T12:41:09;1.33;;;0.70;;
10295;SDS011;5193;51.032;6.356;2023-07-20T12:43:38;2.30;;;0.77;;
10295;SDS011;5193;51.032;6.356;2023-07-20T12:46:03;1.20;;;0.87;;
10295;SDS011;5193;51.032;6.356;2023-07-20T12:48:29;1.83;;;0.83;;
10295;SDS011;5193;51.032;6.356;2023-07-20T12:50:55;3.22;;;0.90;;
10295;SDS011;5193;51.032;6.356;2023-07-20T12:53:21;1.25;;;1.02;;
10295;SDS011;5193;51.032;6.356;2023-07-20T12:55:47;2.15;;;0.90;;
10295;SDS011;5193;51.032;6.356;2023-07-20T12:58:12;1.73;;;0.80;;
10295;SDS011;5193;51.032;6.356;2023-07-20T13:00:38;1.10;;;0.93;;
10295;SDS011;5193;51.032;6.356;2023-07-20T13:03:04;2.00;;;1.00;;
10295;SDS011;5193;51.032;6.356;2023-07-20T13:05:31;6.93;;;1.60;;
10295;SDS011;5193;51.032;6.356;2023-07-20T13:07:57;1.40;;;1.00;;
10295;SDS011;5193;51.032;6.356;2023-07-20T13:10:23;5.35;;;0.90;;
10295;SDS011;5193;51.032;6.356;2023-07-20T13:12:49;1.08;;;0.95;;
10295;SDS011;5193;51.032;6.356;2023-07-20T13:15:15;5.43;;;1.30;;
10295;SDS011;5193;51.032;6.356;2023-07-20T13:17:42;1.35;;;1.00;;
10295;SDS011;5193;51.032;6.356;2023-07-20T13:20:08;1.88;;;1.10;;
10295;SDS011;5193;51.032;6.356;2023-07-20T13:22:36;2.00;;;1.00;;
10295;SDS011;5193;51.032;6.356;2023-07-20T13:25:02;1.33;;;1.15;;
10295;SDS011;5193;51.032;6.356;2023-07-20T13:27:28;1.58;;;1.10;;
10295;SDS011;5193;51.032;6.356;2023-07-20T13:29:55;1.23;;;0.80;;
10295;SDS011;5193;51.032;6.356;2023-07-20T13:32:21;1.42;;;1.00;;
10295;SDS011;5193;51.032;6.356;2023-07-20T13:34:47;3.35;;;1.10;;
10295;SDS011;5193;51.032;6.356;2023-07-20T13:37:13;2.78;;;1.10;;
10295;SDS011;5193;51.032;6.356;2023-07-20T13:39:39;1.67;;;0.98;;
10295;SDS011;5193;51.032;6.356;2023-07-20T13:42:05;1.30;;;1.20;;
10295;SDS011;5193;51.032;6.356;2023-07-20T13:44:31;1.85;;;1.20;;
10295;SDS011;5193;51.032;6.356;2023-07-20T13:46:57;0.90;;;0.90;;
10295;SDS011;5193;51.032;6.356;2023-07-20T13:49:22;1.55;;;1.20;;
10295;SDS011;5193;51.032;6.356;2023-07-20T13:51:48;1.92;;;1.02;;
10295;SDS011;5193;51.032;6.356;2023-07-20T13:54:14;1.23;;;1.13;;
10295;SDS011;5193;51.032;6.356;2023-07-20T13:56:40;1.20;;;1.10;;
10295;SDS011;5193;51.032;6.356;2023-07-20T13:59:06;1.35;;;1.25;;
10295;SDS011;5193;51.032;6.356;2023-07-20T14:01:31;1.50;;;1.00;;
10295;SDS011;5193;51.032;6.356;2023-07-20T14:04:00;1.05;;;1.02;;
10295;SDS011;5193;51.032;6.356;2023-07-20T14:06:31;1.17;;;1.00;;
10295;SDS011;5193;51.032;6.356;2023-07-20T14:08:57;1.02;;;0.93;;
10295;SDS011;5193;51.032;6.356;2023-07-20T14:11:23;1.00;;;0.90;;
10295;SDS011;5193;51.032;6.356;2023-07-20T14:13:50;1.08;;;1.08;;
10295;SDS011;5193;51.032;6.356;2023-07-20T14:16:17;1.10;;;1.00;;
10295;SDS011;5193;51.032;6.356;2023-07-20T14:18:43;0.95;;;0.95;;
10295;SDS011;5193;51.032;6.356;2023-07-20T14:21:12;0.98;;;0.98;;
10295;SDS011;5193;51.032;6.356;2023-07-20T14:23:38;2.28;;;1.13;;
10295;SDS011;5193;51.032;6.356;2023-07-20T14:26:03;1.45;;;1.10;;
10295;SDS011;5193;51.032;6.356;2023-07-20T14:28:33;1.20;;;1.10;;
10295;SDS011;5193;51.032;6.356;2023-07-20T14:31:00;1.25;;;1.15;;
10295;SDS011;5193;51.032;6.356;2023-07-20T14:33:25;1.15;;;1.05;;
10295;SDS011;5193;51.032;6.356;2023-07-20T14:35:51;6.00;;;1.23;;
10295;SDS011;5193;51.032;6.356;2023-07-20T14:38:17;2.08;;;1.35;;
10295;SDS011;5193;51.032;6.356;2023-07-20T14:40:42;3.58;;;1.50;;
10295;SDS011;5193;51.032;6.356;2023-07-20T14:43:08;1.30;;;1.20;;
10295;SDS011;5193;51.032;6.356;2023-07-20T14:45:34;1.48;;;1.30;;
10295;SDS011;5193;51.032;6.356;2023-07-20T14:48:02;1.45;;;1.08;;
10295;SDS011;5193;51.032;6.356;2023-07-20T14:50:28;2.95;;;1.20;;
10295;SDS011;5193;51.032;6.356;2023-07-20T14:52:53;1.52;;;1.13;;
10295;SDS011;5193;51.032;6.356;2023-07-20T14:55:19;2.00;;;1.10;;
10295;SDS011;5193;51.032;6.356;2023-07-20T14:57:45;1.85;;;0.93;;
10295;SDS011;5193;51.032;6.356;2023-07-20T15:00:11;1.60;;;1.05;;
10295;SDS011;5193;51.032;6.356;2023-07-20T15:02:37;1.35;;;1.02;;
10295;SDS011;5193;51.032;6.356;2023-07-20T15:05:06;2.15;;;0.80;;
10295;SDS011;5193;51.032;6.356;2023-07-20T15:07:32;1.07;;;0.90;;
10295;SDS011;5193;51.032;6.356;2023-07-20T15:09:58;1.13;;;1.00;;
10295;SDS011;5193;51.032;6.356;2023-07-20T15:12:23;1.50;;;1.10;;
10295;SDS011;5193;51.032;6.356;2023-07-20T15:15:01;3.10;;;0.80;;
10295;SDS011;5193;51.032;6.356;2023-07-20T15:17:32;1.67;;;1.00;;